createdAt,value
2022-10-23T00:01:13.317Z,13.30
2022-10-23T00:03:40.186Z,13.40
2022-10-23T00:06:07.514Z,13.40
2022-10-23T00:08:34.512Z,13.40
2022-10-23T00:11:01.691Z,13.40
2022-10-23T00:13:28.601Z,13.40
2022-10-23T00:15:55.453Z,13.40
2022-10-23T00:18:22.325Z,13.40
2022-10-23T00:20:49.319Z,13.40
2022-10-23T00:23:17.128Z,13.40
2022-10-23T00:25:44.030Z,13.30
2022-10-23T00:28:10.975Z,13.30
2022-10-23T00:30:37.884Z,13.30
2022-10-23T00:33:04.777Z,13.20
2022-10-23T00:35:31.721Z,13.20
2022-10-23T00:37:58.612Z,13.20
2022-10-23T00:40:25.484Z,13.20
2022-10-23T00:42:52.393Z,13.20
2022-10-23T00:45:28.397Z,13.20
2022-10-23T00:47:55.596Z,13.20
2022-10-23T00:50:24.732Z,13.20
2022-10-23T00:52:54.378Z,13.20
2022-10-23T00:55:23.226Z,13.20
2022-10-23T00:57:51.262Z,13.30
2022-10-23T01:00:22.166Z,13.20
2022-10-23T01:02:50.221Z,13.20
2022-10-23T01:05:22.612Z,13.20
2022-10-23T01:08:01.151Z,13.10
2022-10-23T01:10:40.054Z,13.10
2022-10-23T01:13:21.619Z,13.10
2022-10-23T01:15:58.207Z,13.10
2022-10-23T01:18:37.769Z,13.10
2022-10-23T01:21:27.653Z,13.10
2022-10-23T01:24:05.657Z,13.00
2022-10-23T01:27:15.605Z,13.00
2022-10-23T01:30:03.186Z,13.10
2022-10-23T01:32:34.178Z,13.10
2022-10-23T01:35:03.860Z,13.00
2022-10-23T01:37:42.572Z,13.10
2022-10-23T01:40:23.085Z,13.10
2022-10-23T01:42:54.975Z,13.00
2022-10-23T01:45:33.600Z,13.00
2022-10-23T01:48:02.817Z,13.10
2022-10-23T01:50:31.365Z,13.10
2022-10-23T01:53:04.261Z,13.10
2022-10-23T01:55:32.902Z,13.10
2022-10-23T01:58:04.610Z,13.10
2022-10-23T02:00:40.566Z,13.10
2022-10-23T02:03:09.420Z,13.10
2022-10-23T02:05:39.230Z,13.10
2022-10-23T02:08:07.039Z,13.20
2022-10-23T02:10:57.174Z,13.20
2022-10-23T02:13:46.774Z,13.20
2022-10-23T02:16:29.395Z,13.20
2022-10-23T02:19:26.805Z,13.20
2022-10-23T02:22:23.506Z,13.20
2022-10-23T02:25:07.963Z,13.20
2022-10-23T02:27:43.455Z,13.30
2022-10-23T02:30:16.070Z,13.30
2022-10-23T02:32:53.711Z,13.30
2022-10-23T02:35:23.843Z,13.30
2022-10-23T02:38:00.517Z,13.40
2022-10-23T02:40:41.697Z,13.40
2022-10-23T02:43:24.273Z,13.40
2022-10-23T02:46:08.300Z,13.40
2022-10-23T02:48:47.826Z,13.40
2022-10-23T02:51:43.833Z,13.40
2022-10-23T02:54:26.189Z,13.40
2022-10-23T02:57:06.064Z,13.50
2022-10-23T03:00:07.877Z,13.50
2022-10-23T03:03:02.230Z,13.50
2022-10-23T03:05:37.442Z,13.50
2022-10-23T03:08:13.500Z,13.50
2022-10-23T03:10:42.629Z,13.50
2022-10-23T03:13:10.938Z,13.50
2022-10-23T03:15:43.509Z,13.60
2022-10-23T03:18:13.671Z,13.60
2022-10-23T03:20:45.372Z,13.60
2022-10-23T03:23:13.894Z,13.60
2022-10-23T03:25:40.818Z,13.60
2022-10-23T03:28:07.862Z,13.60
2022-10-23T03:30:35.916Z,13.60
2022-10-23T03:33:02.883Z,13.60
2022-10-23T03:35:29.794Z,13.60
2022-10-23T03:37:56.736Z,13.60
2022-10-23T03:40:26.021Z,13.70
2022-10-23T03:42:52.906Z,13.60
2022-10-23T03:45:19.997Z,13.60
2022-10-23T03:47:48.667Z,13.60
2022-10-23T03:50:15.618Z,13.70
2022-10-23T03:52:43.039Z,13.70
2022-10-23T03:55:12.721Z,13.70
2022-10-23T03:57:39.647Z,13.70
2022-10-23T04:00:07.528Z,13.70
2022-10-23T04:02:43.754Z,13.60
2022-10-23T04:05:11.915Z,13.60
2022-10-23T04:07:40.710Z,13.60
2022-10-23T04:10:08.001Z,13.60
2022-10-23T04:12:35.361Z,13.60
2022-10-23T04:15:02.215Z,13.50
2022-10-23T04:17:29.234Z,13.50
2022-10-23T04:19:56.455Z,13.50
2022-10-23T04:22:25.936Z,13.50
2022-10-23T04:24:54.751Z,13.50
2022-10-23T04:27:21.858Z,13.50
2022-10-23T04:29:49.220Z,13.40
2022-10-23T04:32:16.107Z,13.40
2022-10-23T04:34:44.440Z,13.40
2022-10-23T04:37:11.302Z,13.40
2022-10-23T04:39:38.616Z,13.30
2022-10-23T04:42:05.636Z,13.30
2022-10-23T04:44:32.555Z,13.20
2022-10-23T04:46:59.415Z,13.30
2022-10-23T04:49:26.314Z,13.20
2022-10-23T04:52:11.309Z,13.20
2022-10-23T04:54:59.500Z,13.10
2022-10-23T04:57:30.560Z,13.10
2022-10-23T05:00:09.235Z,13.10
2022-10-23T05:02:50.359Z,13.00
2022-10-23T05:05:18.116Z,13.00
2022-10-23T05:08:18.243Z,13.00
2022-10-23T05:11:03.626Z,12.90
2022-10-23T05:13:35.405Z,12.90
2022-10-23T05:16:02.835Z,12.90
2022-10-23T05:18:32.597Z,12.90
2022-10-23T05:21:14.617Z,12.80
2022-10-23T05:23:43.391Z,12.80
2022-10-23T05:26:10.519Z,12.80
2022-10-23T05:28:38.848Z,12.80
2022-10-23T05:31:06.633Z,12.80
2022-10-23T05:33:37.227Z,12.80
2022-10-23T05:36:06.024Z,12.70
2022-10-23T05:38:35.631Z,12.70
2022-10-23T05:41:10.222Z,12.70
2022-10-23T05:43:37.641Z,12.70
2022-10-23T05:46:16.958Z,12.60
2022-10-23T05:48:51.390Z,12.60
2022-10-23T05:51:31.928Z,12.60
2022-10-23T05:54:03.745Z,12.80
2022-10-23T05:56:41.547Z,12.90
2022-10-23T05:59:23.389Z,13.00
2022-10-23T06:02:22.721Z,13.20
2022-10-23T06:04:59.600Z,13.40
2022-10-23T06:07:44.289Z,13.50
2022-10-23T06:10:13.062Z,13.60
2022-10-23T06:12:44.419Z,13.70
2022-10-23T06:15:15.680Z,13.80
2022-10-23T06:18:06.111Z,13.80
2022-10-23T06:20:37.364Z,13.80
2022-10-23T06:23:17.641Z,13.80
2022-10-23T06:26:18.425Z,13.80
2022-10-23T06:28:56.257Z,13.80
2022-10-23T06:31:27.753Z,13.80
2022-10-23T06:33:57.733Z,13.70
2022-10-23T06:36:27.477Z,13.70
2022-10-23T06:39:01.125Z,13.70
2022-10-23T06:41:48.078Z,13.70
2022-10-23T06:44:35.017Z,13.70
2022-10-23T06:47:10.797Z,13.70
2022-10-23T06:49:56.643Z,13.80
2022-10-23T06:52:42.070Z,13.70
2022-10-23T06:55:10.887Z,13.70
2022-10-23T06:57:38.917Z,13.80
2022-10-23T07:00:06.640Z,13.80
2022-10-23T07:02:42.745Z,13.80
2022-10-23T07:05:13.541Z,13.90
2022-10-23T07:07:42.861Z,13.90
2022-10-23T07:10:26.887Z,13.90
2022-10-23T07:13:00.768Z,14.00
2022-10-23T07:15:40.930Z,14.00
2022-10-23T07:18:19.448Z,14.00
2022-10-23T07:21:06.817Z,14.10
2022-10-23T07:23:34.048Z,14.10
2022-10-23T07:26:14.362Z,14.10
2022-10-23T07:28:46.272Z,14.20
2022-10-23T07:31:16.138Z,14.20
2022-10-23T07:34:15.036Z,14.20
2022-10-23T07:36:43.494Z,14.30
2022-10-23T07:39:11.888Z,14.30
2022-10-23T07:41:46.260Z,14.30
2022-10-23T07:44:13.186Z,14.30
2022-10-23T07:46:40.263Z,14.40
2022-10-23T07:49:09.476Z,14.40
2022-10-23T07:51:36.513Z,14.40
2022-10-23T07:54:04.146Z,14.50
2022-10-23T07:56:50.179Z,14.50
2022-10-23T07:59:22.347Z,14.50
2022-10-23T08:01:55.711Z,14.60
2022-10-23T08:04:25.131Z,14.60
2022-10-23T08:07:08.304Z,14.60
2022-10-23T08:09:41.212Z,14.70
2022-10-23T08:12:09.788Z,14.70
2022-10-23T08:14:36.744Z,14.80
2022-10-23T08:17:05.233Z,14.80
2022-10-23T08:19:55.243Z,14.80
2022-10-23T08:22:22.378Z,14.90
2022-10-23T08:24:49.356Z,14.90
2022-10-23T08:27:16.464Z,14.90
2022-10-23T08:29:46.722Z,15.00
2022-10-23T08:32:14.340Z,15.00
2022-10-23T08:34:56.204Z,15.10
2022-10-23T08:37:24.754Z,15.20
2022-10-23T08:39:53.342Z,15.30
2022-10-23T08:42:27.531Z,15.40
2022-10-23T08:45:21.941Z,15.50
2022-10-23T08:47:55.924Z,15.60
2022-10-23T08:51:06.145Z,15.80
2022-10-23T08:53:41.092Z,16.00
2022-10-23T08:56:20.593Z,16.10
2022-10-23T08:58:54.969Z,16.30
2022-10-23T09:01:40.605Z,16.50
2022-10-23T09:04:12.052Z,16.60
2022-10-23T09:07:00.030Z,16.80
2022-10-23T09:10:01.866Z,16.90
2022-10-23T09:12:30.857Z,17.00
2022-10-23T09:15:15.624Z,17.10
2022-10-23T09:17:44.260Z,17.20
2022-10-23T09:20:21.051Z,17.30
2022-10-23T09:22:50.216Z,17.30
2022-10-23T09:25:29.770Z,17.40
2022-10-23T09:28:01.455Z,17.40
2022-10-23T09:30:41.286Z,17.50
2022-10-23T09:33:26.372Z,17.60
2022-10-23T09:35:57.605Z,17.60
2022-10-23T09:38:29.230Z,17.80
2022-10-23T09:40:57.564Z,17.80
2022-10-23T09:43:27.445Z,17.90
2022-10-23T09:46:02.831Z,18.00
2022-10-23T09:48:30.777Z,18.00
2022-10-23T09:51:01.663Z,18.10
2022-10-23T09:53:31.721Z,18.10
2022-10-23T09:56:26.273Z,18.20
2022-10-23T09:59:25.250Z,18.20
2022-10-23T10:02:01.266Z,18.20
2022-10-23T10:04:59.375Z,18.20
2022-10-23T10:07:33.359Z,18.20
2022-10-23T10:10:02.892Z,18.20
2022-10-23T10:12:37.504Z,18.30
2022-10-23T10:15:25.751Z,18.30
2022-10-23T10:18:10.482Z,18.40
2022-10-23T10:20:47.940Z,18.30
2022-10-23T10:23:29.906Z,18.30
2022-10-23T10:26:07.847Z,18.40
2022-10-23T10:29:01.640Z,18.40
2022-10-23T10:31:37.295Z,18.50
2022-10-23T10:34:17.399Z,18.50
2022-10-23T10:36:57.347Z,18.60
2022-10-23T10:39:42.933Z,18.70
2022-10-23T10:42:30.828Z,18.70
2022-10-23T10:45:25.221Z,18.80
2022-10-23T10:48:13.074Z,18.80
2022-10-23T10:51:23.342Z,18.80
2022-10-23T10:54:08.876Z,18.80
2022-10-23T10:56:41.680Z,18.80
2022-10-23T10:59:26.667Z,18.80
2022-10-23T11:02:00.641Z,18.80
2022-10-23T11:04:53.118Z,18.80
2022-10-23T11:07:25.272Z,18.80
2022-10-23T11:09:52.431Z,18.80
2022-10-23T11:12:26.260Z,18.70
2022-10-23T11:14:53.506Z,18.70
2022-10-23T11:17:39.169Z,18.70
2022-10-23T11:20:19.537Z,18.70
2022-10-23T11:23:09.960Z,18.70
2022-10-23T11:25:58.040Z,18.70
2022-10-23T11:28:49.368Z,18.60
2022-10-23T11:31:29.592Z,18.70
2022-10-23T11:34:28.322Z,18.80
2022-10-23T11:36:57.369Z,18.80
2022-10-23T11:39:29.503Z,18.80
2022-10-23T11:42:07.373Z,18.90
2022-10-23T11:44:42.706Z,19.00
2022-10-23T11:47:38.994Z,19.00
2022-10-23T11:50:06.781Z,19.00
2022-10-23T11:53:09.376Z,19.10
2022-10-23T11:55:41.995Z,19.00
2022-10-23T11:58:20.928Z,19.00
2022-10-23T12:00:59.467Z,18.90
2022-10-23T12:03:39.717Z,18.90
2022-10-23T12:06:08.079Z,19.00
2022-10-23T12:08:38.754Z,18.90
2022-10-23T12:11:05.825Z,18.90
2022-10-23T12:13:38.513Z,19.00
2022-10-23T12:16:09.546Z,19.10
2022-10-23T12:18:50.531Z,19.20
2022-10-23T12:21:27.908Z,19.30
2022-10-23T12:24:12.528Z,19.30
2022-10-23T12:27:06.193Z,19.40
2022-10-23T12:29:36.766Z,19.50
2022-10-23T12:32:30.962Z,19.60
2022-10-23T12:35:40.057Z,19.60
2022-10-23T12:38:18.196Z,19.60
2022-10-23T12:40:53.935Z,19.70
2022-10-23T12:43:36.239Z,19.80
2022-10-23T12:46:47.714Z,19.90
2022-10-23T12:49:20.405Z,20.10
2022-10-23T12:51:59.371Z,20.20
2022-10-23T12:54:27.089Z,20.20
2022-10-23T12:56:54.788Z,20.30
2022-10-23T12:59:26.798Z,20.30
2022-10-23T13:01:55.123Z,20.30
2022-10-23T13:04:33.412Z,20.50
2022-10-23T13:07:02.861Z,20.50
2022-10-23T13:09:39.321Z,20.60
2022-10-23T13:12:24.426Z,20.60
2022-10-23T13:14:59.863Z,20.60
2022-10-23T13:17:37.711Z,20.70
2022-10-23T13:20:21.356Z,20.70
2022-10-23T13:22:57.744Z,20.60
2022-10-23T13:25:30.992Z,20.60
2022-10-23T13:28:28.920Z,20.60
2022-10-23T13:31:30.818Z,20.70
2022-10-23T13:34:00.805Z,20.70
2022-10-23T13:36:34.981Z,20.60
2022-10-23T13:39:10.275Z,20.70
2022-10-23T13:41:43.668Z,20.60
2022-10-23T13:44:13.116Z,20.50
2022-10-23T13:46:40.384Z,20.50
2022-10-23T13:49:07.274Z,20.40
2022-10-23T13:51:42.588Z,20.40
2022-10-23T13:54:15.638Z,20.30
2022-10-23T13:56:42.642Z,20.30
2022-10-23T13:59:11.760Z,20.30
2022-10-23T14:01:39.163Z,20.20
2022-10-23T14:04:07.673Z,20.30
2022-10-23T14:06:34.897Z,20.20
2022-10-23T14:09:01.755Z,20.20
2022-10-23T14:11:28.831Z,20.10
2022-10-23T14:13:55.961Z,20.10
2022-10-23T14:16:23.390Z,20.10
2022-10-23T14:18:51.073Z,20.10
2022-10-23T14:21:21.865Z,20.00
2022-10-23T14:23:49.889Z,20.00
2022-10-23T14:26:20.070Z,19.90
2022-10-23T14:28:47.444Z,19.90
2022-10-23T14:31:17.195Z,19.90
2022-10-23T14:33:45.372Z,19.90
2022-10-23T14:36:12.854Z,19.80
2022-10-23T14:38:39.807Z,19.80
2022-10-23T14:41:11.647Z,19.80
2022-10-23T14:43:39.220Z,19.70
2022-10-23T14:46:15.350Z,19.70
2022-10-23T14:48:46.066Z,19.60
2022-10-23T14:51:20.196Z,19.60
2022-10-23T14:53:48.332Z,19.60
2022-10-23T14:56:16.028Z,19.50
2022-10-23T14:58:43.303Z,19.50
2022-10-23T15:01:10.779Z,19.40
2022-10-23T15:03:38.256Z,19.40
2022-10-23T15:06:06.989Z,19.40
2022-10-23T15:08:35.008Z,19.40
2022-10-23T15:11:04.866Z,19.30
2022-10-23T15:13:33.808Z,19.30
2022-10-23T15:16:06.093Z,19.20
2022-10-23T15:18:33.229Z,19.20
2022-10-23T15:21:00.864Z,19.10
2022-10-23T15:23:27.882Z,19.10
2022-10-23T15:25:56.652Z,19.10
2022-10-23T15:28:23.555Z,19.10
2022-10-23T15:30:50.476Z,19.10
2022-10-23T15:33:19.849Z,19.00
2022-10-23T15:35:46.988Z,19.00
2022-10-23T15:38:13.914Z,19.00
2022-10-23T15:40:42.130Z,18.90
2022-10-23T15:43:12.468Z,18.90
2022-10-23T15:45:41.142Z,18.90
2022-10-23T15:48:09.068Z,18.90
2022-10-23T15:50:36.949Z,18.90
2022-10-23T15:53:04.226Z,18.80
2022-10-23T15:55:31.077Z,18.80
2022-10-23T15:58:03.960Z,18.80
2022-10-23T16:00:31.037Z,18.70
2022-10-23T16:02:58.294Z,18.60
2022-10-23T16:05:25.099Z,18.40
2022-10-23T16:07:51.995Z,18.40
2022-10-23T16:10:19.007Z,18.30
2022-10-23T16:12:46.158Z,18.20
2022-10-23T16:15:13.261Z,18.20
2022-10-23T16:17:42.292Z,18.10
2022-10-23T16:20:10.237Z,18.00
2022-10-23T16:22:40.248Z,18.00
2022-10-23T16:25:09.895Z,17.90
2022-10-23T16:27:36.806Z,17.80
2022-10-23T16:30:06.197Z,17.70
2022-10-23T16:32:33.171Z,17.70
2022-10-23T16:35:00.125Z,17.60
2022-10-23T16:37:36.504Z,17.60
2022-10-23T16:40:08.776Z,17.60
2022-10-23T16:42:54.099Z,17.60
2022-10-23T16:45:34.394Z,17.60
2022-10-23T16:48:04.069Z,17.60
2022-10-23T16:50:31.224Z,17.60
2022-10-23T16:52:58.204Z,17.60
2022-10-23T16:55:25.111Z,17.60
2022-10-23T16:57:52.077Z,17.60
2022-10-23T17:00:21.962Z,17.50
2022-10-23T17:02:48.945Z,17.40
2022-10-23T17:05:16.001Z,17.30
2022-10-23T17:07:43.137Z,17.30
2022-10-23T17:10:10.243Z,17.20
2022-10-23T17:12:37.715Z,17.10
2022-10-23T17:15:05.201Z,17.00
2022-10-23T17:17:32.327Z,17.00
2022-10-23T17:19:59.248Z,16.90
2022-10-23T17:22:26.203Z,16.90
2022-10-23T17:24:54.115Z,16.80
2022-10-23T17:27:21.349Z,16.80
2022-10-23T17:29:48.417Z,16.70
2022-10-23T17:32:15.425Z,16.70
2022-10-23T17:34:42.411Z,16.70
2022-10-23T17:37:10.218Z,16.70
2022-10-23T17:39:37.331Z,16.60
2022-10-23T17:42:04.409Z,16.50
2022-10-23T17:44:31.376Z,16.50
2022-10-23T17:46:58.650Z,16.40
2022-10-23T17:49:25.589Z,16.30
2022-10-23T17:51:57.836Z,16.30
2022-10-23T17:54:26.621Z,16.20
2022-10-23T17:56:53.817Z,16.10
2022-10-23T17:59:22.482Z,16.10
2022-10-23T18:01:50.032Z,16.10
2022-10-23T18:04:18.994Z,16.10
2022-10-23T18:06:49.358Z,16.10
2022-10-23T18:09:16.990Z,16.10
2022-10-23T18:11:48.167Z,16.10
2022-10-23T18:14:17.983Z,16.10
2022-10-23T18:16:45.714Z,16.00
2022-10-23T18:19:13.778Z,16.00
2022-10-23T18:21:40.825Z,16.00
2022-10-23T18:24:08.095Z,16.00
2022-10-23T18:26:35.428Z,15.90
2022-10-23T18:29:04.863Z,15.90
2022-10-23T18:31:31.880Z,15.90
2022-10-23T18:34:07.370Z,15.90
2022-10-23T18:36:37.204Z,15.80
2022-10-23T18:39:05.614Z,15.80
2022-10-23T18:41:35.393Z,15.80
2022-10-23T18:44:03.424Z,15.80
2022-10-23T18:46:30.376Z,15.80
2022-10-23T18:48:57.410Z,15.80
2022-10-23T18:51:27.205Z,15.80
2022-10-23T18:53:54.907Z,15.70
2022-10-23T18:56:24.459Z,15.70
2022-10-23T18:58:53.387Z,15.80
2022-10-23T19:01:20.857Z,15.70
2022-10-23T19:03:48.226Z,15.70
2022-10-23T19:06:16.006Z,15.70
2022-10-23T19:08:44.639Z,15.60
2022-10-23T19:11:13.666Z,15.60
2022-10-23T19:13:41.501Z,15.60
2022-10-23T19:16:16.314Z,15.60
2022-10-23T19:18:47.910Z,15.60
2022-10-23T19:21:16.207Z,15.60
2022-10-23T19:23:43.744Z,15.60
2022-10-23T19:26:13.236Z,15.60
2022-10-23T19:28:43.179Z,15.60
2022-10-23T19:31:11.184Z,15.60
2022-10-23T19:33:39.049Z,15.60
2022-10-23T19:36:11.144Z,15.60
2022-10-23T19:38:40.238Z,15.60
2022-10-23T19:41:07.640Z,15.60
2022-10-23T19:43:34.482Z,15.60
2022-10-23T19:46:05.021Z,15.60
2022-10-23T19:48:34.933Z,15.60
2022-10-23T19:51:01.977Z,15.60
2022-10-23T19:53:29.082Z,15.60
2022-10-23T19:56:04.143Z,15.70
2022-10-23T19:58:31.071Z,15.70
2022-10-23T20:00:58.007Z,15.70
2022-10-23T20:03:28.052Z,15.70
2022-10-23T20:05:54.965Z,15.70
2022-10-23T20:08:21.792Z,15.70
2022-10-23T20:10:50.861Z,15.70
2022-10-23T20:13:20.246Z,15.70
2022-10-23T20:15:47.604Z,15.70
2022-10-23T20:18:14.603Z,15.70
2022-10-23T20:20:42.421Z,15.70
2022-10-23T20:23:09.756Z,15.80
2022-10-23T20:25:36.713Z,15.80
2022-10-23T20:28:03.763Z,15.80
2022-10-23T20:30:31.223Z,15.80
2022-10-23T20:32:58.062Z,15.80
2022-10-23T20:35:25.028Z,15.80
2022-10-23T20:37:51.981Z,15.80
2022-10-23T20:40:18.886Z,15.90
2022-10-23T20:42:45.733Z,15.80
2022-10-23T20:45:12.701Z,15.80
2022-10-23T20:47:39.866Z,15.90
2022-10-23T20:50:08.595Z,15.90
2022-10-23T20:52:35.631Z,15.90
2022-10-23T20:55:02.612Z,15.90
2022-10-23T20:57:29.566Z,15.90
2022-10-23T20:59:56.422Z,16.00
2022-10-23T21:02:23.568Z,16.10
2022-10-23T21:04:50.731Z,16.10
2022-10-23T21:07:18.195Z,16.20
2022-10-23T21:09:45.134Z,16.20
2022-10-23T21:12:12.113Z,16.30
2022-10-23T21:14:39.327Z,16.30
2022-10-23T21:17:08.278Z,16.30
2022-10-23T21:19:35.316Z,16.40
2022-10-23T21:22:02.291Z,16.50
2022-10-23T21:24:29.238Z,16.50
2022-10-23T21:26:56.123Z,16.60
2022-10-23T21:29:23.056Z,16.60
2022-10-23T21:31:58.496Z,16.60
2022-10-23T21:34:26.288Z,16.60
2022-10-23T21:37:12.537Z,16.50
2022-10-23T21:39:40.809Z,16.50
2022-10-23T21:42:08.071Z,16.50
2022-10-23T21:44:34.895Z,16.40
2022-10-23T21:47:01.732Z,16.30
2022-10-23T21:49:28.750Z,16.30
2022-10-23T21:51:55.586Z,16.30
2022-10-23T21:54:23.244Z,16.20
2022-10-23T21:56:51.675Z,16.20
2022-10-23T21:59:20.637Z,16.10
2022-10-23T22:01:48.798Z,16.10
2022-10-23T22:04:17.623Z,16.10
2022-10-23T22:06:46.405Z,16.00
2022-10-23T22:09:16.307Z,16.00
2022-10-23T22:11:43.527Z,16.00
2022-10-23T22:14:10.482Z,16.00
2022-10-23T22:16:37.480Z,16.10
2022-10-23T22:19:04.875Z,16.10
2022-10-23T22:21:32.103Z,16.10
2022-10-23T22:24:00.770Z,16.10
2022-10-23T22:26:31.916Z,16.10
2022-10-23T22:29:01.911Z,16.10
2022-10-23T22:31:31.585Z,16.00
2022-10-23T22:33:59.384Z,16.00
2022-10-23T22:36:26.625Z,16.10
2022-10-23T22:38:54.741Z,16.10
2022-10-23T22:41:21.692Z,16.10
2022-10-23T22:43:48.687Z,16.00
2022-10-23T22:46:20.006Z,16.10
2022-10-23T22:48:46.883Z,16.00
2022-10-23T22:51:16.204Z,16.00
2022-10-23T22:53:43.680Z,16.00
2022-10-23T22:56:17.502Z,16.00
2022-10-23T22:58:45.860Z,16.00
2022-10-23T23:01:14.864Z,16.00
2022-10-23T23:03:42.923Z,16.00
2022-10-23T23:06:10.484Z,16.00
2022-10-23T23:08:39.300Z,16.00
2022-10-23T23:11:08.182Z,16.10
2022-10-23T23:13:35.302Z,16.10
2022-10-23T23:16:02.574Z,16.10
2022-10-23T23:18:29.624Z,16.10
2022-10-23T23:21:01.968Z,16.10
2022-10-23T23:23:29.570Z,16.10
2022-10-23T23:25:56.562Z,16.10
2022-10-23T23:28:23.608Z,16.10
2022-10-23T23:30:50.541Z,16.10
2022-10-23T23:33:23.625Z,16.10
2022-10-23T23:35:50.488Z,16.10
2022-10-23T23:38:17.392Z,16.00
2022-10-23T23:40:51.478Z,16.00
2022-10-23T23:43:18.352Z,16.10
2022-10-23T23:45:45.429Z,16.10
2022-10-23T23:48:12.300Z,16.10
2022-10-23T23:50:39.194Z,16.20
2022-10-23T23:53:06.082Z,16.20
2022-10-23T23:55:33.121Z,16.20
2022-10-23T23:58:00.104Z,16.20
